Nova Santa Rita, Brazil
Current Conditions -  °F | °C
As of 6:00 PM on Monday 24 Nov 2014 (Local Time) from SBCO Reporting Station
Clear Clear  
Wind Chill: 95°   Ceiling: Unl
Heat Index: 98°   Visibility: 6mi
Dew Point: 66°   Wind: 6mph
Humidity: 39%   Direction: 210°SSW
Pressure: 29.74"   Gusts: NA
Location:  29.86°S, 51.27°W
Report Text: SBCO 242000Z 21005KT CAVOK 35/19 Q1007
Loading
Personal Weather Stations






























Interactive Weather Map New forecast layout! Learn more

10-Day Weather Forecast

Advertisements
Track Severe Weather on mobile